createdAt,value
2023-02-11T00:05:01.919Z,-4.31
2023-02-11T00:10:10.040Z,-4.32
2023-02-11T00:15:15.765Z,-4.63
2023-02-11T00:20:21.773Z,-4.93
2023-02-11T00:25:27.147Z,-4.93
2023-02-11T00:30:32.978Z,-5.69
2023-02-11T00:35:39.207Z,-5.74
2023-02-11T00:40:46.387Z,-5.83
2023-02-11T00:45:51.935Z,-5.79
2023-02-11T00:50:57.823Z,-6.22
2023-02-11T00:56:05.117Z,-6.63
2023-02-11T01:01:13.115Z,-6.74
2023-02-11T01:06:19.171Z,-6.92
2023-02-11T01:11:24.845Z,-6.74
2023-02-11T01:16:30.697Z,-6.65
2023-02-11T01:21:36.347Z,-6.83
2023-02-11T01:26:41.936Z,-6.86
2023-02-11T01:31:47.756Z,-6.91
2023-02-11T01:36:59.576Z,-6.81
2023-02-11T01:42:07.689Z,-6.90
2023-02-11T01:47:13.102Z,-6.97
2023-02-11T01:52:29.120Z,-6.90
2023-02-11T01:57:37.761Z,-6.60
2023-02-11T02:03:23.147Z,-6.65
2023-02-11T02:08:58.397Z,-6.61
2023-02-11T02:14:04.650Z,-6.60
2023-02-11T02:19:44.087Z,-6.65
2023-02-11T02:25:33.967Z,-6.41
2023-02-11T02:31:11.093Z,-6.65
2023-02-11T02:36:23.018Z,-6.76
2023-02-11T02:41:35.438Z,-6.57
2023-02-11T02:46:41.274Z,-6.50
2023-02-11T02:52:02.412Z,-6.80
2023-02-11T02:57:21.910Z,-7.22
2023-02-11T03:02:59.916Z,-7.18
2023-02-11T03:08:37.688Z,-7.04
2023-02-11T03:13:44.955Z,-7.00
2023-02-11T03:19:03.336Z,-7.41
2023-02-11T03:24:17.775Z,-7.33
2023-02-11T03:29:39.110Z,-7.75
2023-02-11T03:35:15.435Z,-7.36
2023-02-11T03:40:27.710Z,-7.60
2023-02-11T03:45:34.043Z,-7.79
2023-02-11T03:50:41.924Z,-8.20
2023-02-11T03:55:50.534Z,-7.59
2023-02-11T04:00:56.271Z,-7.30
2023-02-11T04:06:01.766Z,-7.42
2023-02-11T04:11:07.594Z,-7.51
2023-02-11T04:16:13.142Z,-7.25
2023-02-11T04:21:18.646Z,-7.26
2023-02-11T04:26:24.086Z,-7.32
2023-02-11T04:31:29.838Z,-7.05
2023-02-11T04:36:35.575Z,-6.83
2023-02-11T04:41:41.310Z,-6.59
2023-02-11T04:46:46.882Z,-5.86
2023-02-11T04:51:52.585Z,-5.50
2023-02-11T04:56:58.132Z,-5.68
2023-02-11T05:02:04.669Z,-5.24
2023-02-11T05:07:10.055Z,-4.80
2023-02-11T05:12:15.771Z,-3.88
2023-02-11T05:17:21.298Z,-3.55
2023-02-11T05:22:26.705Z,-2.87
2023-02-11T05:27:32.303Z,-3.39
2023-02-11T05:32:38.252Z,-3.90
2023-02-11T05:37:43.890Z,-3.97
2023-02-11T05:42:49.391Z,-4.05
2023-02-11T05:47:54.535Z,-3.17
2023-02-11T05:53:00.255Z,-2.71
2023-02-11T05:58:07.473Z,-2.25
2023-02-11T06:03:13.113Z,-2.46
2023-02-11T06:08:18.614Z,-2.16
2023-02-11T06:13:24.214Z,-2.10
2023-02-11T06:18:30.365Z,-1.79
2023-02-11T06:23:36.118Z,-1.91
2023-02-11T06:28:42.075Z,-1.55
2023-02-11T06:33:47.897Z,-1.63
2023-02-11T06:38:53.534Z,-1.66
2023-02-11T06:43:59.196Z,-1.76
2023-02-11T06:49:04.783Z,-1.52
2023-02-11T06:54:12.126Z,-1.24
2023-02-11T06:59:19.320Z,-1.03
2023-02-11T07:04:24.834Z,-1.00
2023-02-11T07:09:30.323Z,-0.95
2023-02-11T07:14:36.072Z,-0.58
2023-02-11T07:19:41.668Z,-0.31
2023-02-11T07:24:47.035Z,-0.03
2023-02-11T07:29:52.187Z,0.03
2023-02-11T07:34:58.250Z,-0.01
2023-02-11T07:40:04.704Z,0.25
2023-02-11T07:45:10.567Z,0.34
2023-02-11T07:50:17.733Z,0.15
2023-02-11T07:55:23.258Z,0.27
2023-02-11T08:00:28.872Z,0.36
2023-02-11T08:05:34.513Z,0.43
2023-02-11T08:10:40.142Z,0.41
2023-02-11T08:15:45.573Z,0.67
2023-02-11T08:20:51.346Z,0.73
2023-02-11T08:25:56.894Z,0.66
2023-02-11T08:31:08.950Z,0.72
2023-02-11T08:36:17.358Z,0.88
2023-02-11T08:41:22.926Z,1.00
2023-02-11T08:46:28.460Z,1.27
2023-02-11T08:51:33.941Z,1.32
2023-02-11T08:56:39.836Z,1.65
2023-02-11T09:01:47.863Z,1.44
2023-02-11T09:06:53.340Z,1.41
2023-02-11T09:12:01.594Z,1.55
2023-02-11T09:17:07.198Z,1.27
2023-02-11T09:22:12.825Z,1.18
2023-02-11T09:27:18.237Z,0.98
2023-02-11T09:32:23.749Z,0.95
2023-02-11T09:37:29.072Z,1.07
2023-02-11T09:42:53.566Z,0.97
2023-02-11T09:48:04.418Z,1.14
2023-02-11T09:53:45.400Z,1.25
2023-02-11T09:58:50.751Z,1.19
2023-02-11T10:04:22.698Z,1.12
2023-02-11T10:10:08.782Z,1.26
2023-02-11T10:16:11.265Z,1.19
2023-02-11T10:27:21.691Z,1.29
2023-02-11T10:32:42.150Z,1.13
2023-02-11T10:37:48.545Z,1.22
2023-02-11T10:42:57.182Z,1.32
2023-02-11T10:48:04.528Z,1.14
2023-02-11T10:53:21.109Z,1.14
2023-02-11T10:58:33.338Z,1.24
2023-02-11T11:03:50.740Z,1.29
2023-02-11T11:08:56.100Z,1.19
2023-02-11T11:14:03.884Z,1.25
2023-02-11T11:19:09.166Z,1.36
2023-02-11T11:24:58.013Z,1.30
2023-02-11T11:30:04.021Z,1.19
2023-02-11T11:35:49.201Z,1.31
2023-02-11T11:41:17.385Z,1.26
2023-02-11T11:46:31.323Z,1.23
2023-02-11T11:51:41.009Z,1.19
2023-02-11T11:57:19.444Z,1.14
2023-02-11T12:03:10.944Z,0.98
2023-02-11T12:08:31.912Z,0.90
2023-02-11T12:14:14.368Z,0.84
2023-02-11T12:19:37.657Z,0.72
2023-02-11T12:25:02.649Z,0.77
2023-02-11T12:30:22.723Z,0.78
2023-02-11T12:35:35.684Z,0.65
2023-02-11T12:41:48.219Z,0.62
2023-02-11T12:46:59.538Z,0.41
2023-02-11T12:52:11.541Z,0.34
2023-02-11T12:57:29.195Z,0.34
2023-02-11T13:02:52.813Z,0.40
2023-02-11T13:08:14.690Z,0.43
2023-02-11T13:13:31.157Z,0.28
2023-02-11T13:19:21.400Z,0.10
2023-02-11T13:25:00.354Z,-0.07
2023-02-11T13:30:30.533Z,-0.30
2023-02-11T13:35:41.676Z,-0.38
2023-02-11T13:41:04.976Z,-0.53
2023-02-11T13:46:15.527Z,-0.85
2023-02-11T13:51:38.792Z,-0.90
2023-02-11T13:56:46.749Z,-0.88
2023-02-11T14:02:50.891Z,-1.17
2023-02-11T14:08:32.001Z,-1.43
2023-02-11T14:13:59.570Z,-1.47
2023-02-11T14:19:06.800Z,-1.86
2023-02-11T14:24:18.466Z,-1.96
2023-02-11T14:29:53.440Z,-2.36
2023-02-11T14:35:27.687Z,-2.52
2023-02-11T14:40:34.808Z,-2.64
2023-02-11T14:45:41.086Z,-2.84
2023-02-11T14:51:00.671Z,-2.80
2023-02-11T14:56:31.664Z,-2.89
2023-02-11T15:01:43.077Z,-3.07
2023-02-11T15:06:50.271Z,-3.75
2023-02-11T15:11:58.087Z,-3.85
2023-02-11T15:17:08.458Z,-3.89
2023-02-11T15:22:22.690Z,-3.92
2023-02-11T15:27:28.661Z,-3.72
2023-02-11T15:32:34.255Z,-3.77
2023-02-11T15:37:41.330Z,-3.93
2023-02-11T15:43:08.147Z,-4.17
2023-02-11T15:48:15.824Z,-4.30
2023-02-11T15:53:43.800Z,-4.45
2023-02-11T15:58:52.443Z,-3.96
2023-02-11T16:03:57.736Z,-3.79
2023-02-11T16:09:06.619Z,-4.44
2023-02-11T16:14:30.024Z,-4.75
2023-02-11T16:19:36.838Z,-4.83
2023-02-11T16:24:42.610Z,-4.87
2023-02-11T16:29:50.164Z,-4.38
2023-02-11T16:34:58.518Z,-4.15
2023-02-11T16:40:03.935Z,-4.35
2023-02-11T16:45:10.261Z,-4.33
2023-02-11T16:50:24.841Z,-4.61
2023-02-11T16:55:32.418Z,-4.42
2023-02-11T17:00:38.471Z,-4.62
2023-02-11T17:05:54.895Z,-4.57
2023-02-11T17:11:04.437Z,-4.57
2023-02-11T17:16:25.647Z,-4.68
2023-02-11T17:21:32.559Z,-4.66
2023-02-11T17:26:38.837Z,-4.47
2023-02-11T17:31:44.965Z,-4.48
2023-02-11T17:36:51.026Z,-4.48
2023-02-11T17:41:56.541Z,-4.94
2023-02-11T17:47:01.880Z,-4.82
2023-02-11T17:52:07.798Z,-5.19
2023-02-11T17:57:13.986Z,-4.95
2023-02-11T18:02:19.882Z,-5.03
2023-02-11T18:07:26.666Z,-5.20
2023-02-11T18:12:32.249Z,-5.52
2023-02-11T18:17:37.717Z,-5.60
2023-02-11T18:22:44.824Z,-5.56
2023-02-11T18:27:50.416Z,-5.71
2023-02-11T18:32:56.878Z,-5.79
2023-02-11T18:38:02.060Z,-5.68
2023-02-11T18:43:08.021Z,-5.62
2023-02-11T18:48:13.921Z,-5.55
2023-02-11T18:53:19.511Z,-5.77
2023-02-11T18:58:25.065Z,-5.74
2023-02-11T19:03:30.812Z,-5.90
2023-02-11T19:08:36.262Z,-5.92
2023-02-11T19:13:41.752Z,-5.60
2023-02-11T19:18:47.256Z,-5.41
2023-02-11T19:23:52.725Z,-5.28
2023-02-11T19:28:59.318Z,-5.40
2023-02-11T19:34:05.802Z,-5.74
2023-02-11T19:39:11.481Z,-5.89
2023-02-11T19:44:17.397Z,-5.92
2023-02-11T19:49:26.980Z,-6.04
2023-02-11T19:54:32.420Z,-6.16
2023-02-11T19:59:38.144Z,-6.34
2023-02-11T20:04:43.462Z,-6.71
2023-02-11T20:09:49.018Z,-6.39
2023-02-11T20:14:54.449Z,-6.45
2023-02-11T20:20:00.106Z,-6.32
2023-02-11T20:25:06.132Z,-6.45
2023-02-11T20:30:12.289Z,-6.31
2023-02-11T20:35:17.931Z,-6.26
2023-02-11T20:40:23.645Z,-6.22
2023-02-11T20:45:29.172Z,-6.77
2023-02-11T20:50:35.816Z,-7.05
2023-02-11T20:55:41.266Z,-7.00
2023-02-11T21:00:46.871Z,-6.88
2023-02-11T21:05:52.467Z,-6.66
2023-02-11T21:10:59.049Z,-7.15
2023-02-11T21:16:05.052Z,-7.24
2023-02-11T21:21:11.031Z,-7.20
2023-02-11T21:26:17.811Z,-7.08
2023-02-11T21:31:27.361Z,-7.05
2023-02-11T21:36:33.452Z,-7.00
2023-02-11T21:41:38.992Z,-6.82
2023-02-11T21:46:44.922Z,-6.61
2023-02-11T21:51:50.608Z,-6.56
2023-02-11T21:56:56.168Z,-6.60
2023-02-11T22:02:01.386Z,-6.37
2023-02-11T22:07:07.003Z,-6.80
2023-02-11T22:12:12.600Z,-7.05
2023-02-11T22:17:18.307Z,-7.08
2023-02-11T22:22:24.741Z,-7.26
2023-02-11T22:27:30.329Z,-7.54
2023-02-11T22:32:35.830Z,-7.77
2023-02-11T22:37:41.613Z,-7.55
2023-02-11T22:42:47.509Z,-7.56
2023-02-11T22:47:54.742Z,-7.68
2023-02-11T22:53:00.343Z,-8.22
2023-02-11T22:58:06.386Z,-8.25
2023-02-11T23:03:13.961Z,-8.04
2023-02-11T23:08:19.592Z,-8.32
2023-02-11T23:13:25.049Z,-8.13
2023-02-11T23:18:30.391Z,-7.91
2023-02-11T23:23:36.409Z,-7.81
2023-02-11T23:28:42.574Z,-7.98
2023-02-11T23:33:49.055Z,-7.84
2023-02-11T23:38:54.631Z,-7.69
2023-02-11T23:44:00.346Z,-7.68
2023-02-11T23:49:05.793Z,-7.24
2023-02-11T23:54:15.959Z,-7.51
2023-02-11T23:59:21.501Z,-7.60
